createdAt,value
2019-01-30T00:00:35.549Z,27.57
2019-01-30T00:02:46.528Z,25.33
2019-01-30T00:04:52.878Z,25.10
2019-01-30T00:06:59.168Z,21.63
2019-01-30T00:09:07.968Z,25.27
2019-01-30T00:11:14.031Z,23.07
2019-01-30T00:13:21.408Z,23.00
2019-01-30T00:15:28.408Z,20.00
2019-01-30T00:17:34.548Z,18.97
2019-01-30T00:19:41.168Z,17.87
2019-01-30T00:21:49.108Z,26.10
2019-01-30T00:23:55.728Z,16.03
2019-01-30T00:26:02.352Z,16.53
2019-01-30T00:28:09.808Z,17.47
2019-01-30T00:30:27.549Z,22.43
2019-01-30T00:32:35.208Z,19.17
2019-01-30T00:34:42.109Z,20.07
2019-01-30T00:36:48.729Z,60.07
2019-01-30T00:38:58.070Z,77.67
2019-01-30T00:41:04.968Z,28.20
2019-01-30T00:43:12.708Z,29.10
2019-01-30T00:45:21.168Z,30.77
2019-01-30T00:47:27.708Z,21.87
2019-01-30T00:49:33.928Z,28.67
2019-01-30T00:51:40.228Z,22.47
2019-01-30T00:53:46.808Z,27.53
2019-01-30T00:55:53.230Z,33.77
2019-01-30T00:57:59.469Z,27.07
2019-01-30T01:00:14.579Z,30.63
2019-01-30T01:02:18.108Z,22.10
2019-01-30T01:04:26.448Z,19.90
2019-01-30T01:06:33.068Z,21.10
2019-01-30T01:08:39.348Z,21.33
2019-01-30T01:10:45.870Z,41.63
2019-01-30T01:12:52.188Z,65.73
2019-01-30T01:14:58.348Z,29.10
2019-01-30T01:17:05.089Z,27.83
2019-01-30T01:19:12.688Z,24.13
2019-01-30T01:21:20.729Z,26.93
2019-01-30T01:23:27.415Z,27.53
2019-01-30T01:25:35.089Z,24.93
2019-01-30T01:27:42.131Z,25.73
2019-01-30T01:29:49.948Z,21.73
2019-01-30T01:31:57.270Z,27.80
2019-01-30T01:34:03.632Z,28.87
2019-01-30T01:36:10.388Z,23.00
2019-01-30T01:38:17.148Z,29.27
2019-01-30T01:40:23.568Z,29.03
2019-01-30T01:42:30.317Z,23.47
2019-01-30T01:44:36.648Z,22.23
2019-01-30T01:46:42.929Z,26.77
2019-01-30T01:48:49.449Z,22.57
2019-01-30T01:50:55.880Z,27.23
2019-01-30T01:53:02.168Z,27.70
2019-01-30T01:55:11.595Z,24.63
2019-01-30T01:57:18.108Z,31.93
2019-01-30T01:59:25.108Z,24.63
2019-01-30T02:01:31.456Z,20.77
2019-01-30T02:03:37.848Z,28.27
2019-01-30T02:05:44.268Z,26.43
2019-01-30T02:07:50.948Z,25.83
2019-01-30T02:09:57.868Z,27.00
2019-01-30T02:12:04.328Z,26.00
2019-01-30T02:14:10.869Z,26.90
2019-01-30T02:16:18.940Z,30.17
2019-01-30T02:18:25.676Z,27.53
2019-01-30T02:20:34.590Z,21.40
2019-01-30T02:22:41.230Z,26.47
2019-01-30T02:24:49.428Z,27.87
2019-01-30T02:26:55.872Z,30.73
2019-01-30T02:29:02.529Z,39.90
2019-01-30T02:31:11.949Z,36.27
2019-01-30T02:33:18.988Z,37.87
2019-01-30T02:35:25.509Z,36.63
2019-01-30T02:37:31.815Z,31.87
2019-01-30T02:39:38.168Z,28.73
2019-01-30T02:41:45.069Z,27.80
2019-01-30T02:43:53.171Z,27.07
2019-01-30T02:45:59.188Z,27.10
2019-01-30T02:48:05.648Z,37.00
2019-01-30T02:50:16.750Z,33.33
2019-01-30T02:52:24.029Z,27.33
2019-01-30T02:54:31.649Z,31.00
2019-01-30T02:56:38.449Z,33.73
2019-01-30T02:58:44.609Z,27.97
2019-01-30T03:01:11.334Z,30.53
2019-01-30T03:03:20.448Z,25.33
2019-01-30T03:05:26.768Z,27.70
2019-01-30T03:07:33.821Z,27.50
2019-01-30T03:09:40.390Z,24.27
2019-01-30T03:11:46.775Z,29.67
2019-01-30T03:13:53.071Z,30.03
2019-01-30T03:15:59.428Z,30.17
2019-01-30T03:18:05.608Z,28.93
2019-01-30T03:20:16.009Z,28.23
2019-01-30T03:22:22.268Z,38.70
2019-01-30T03:24:28.670Z,35.60
2019-01-30T03:26:35.828Z,40.83
2019-01-30T03:28:42.109Z,38.17
2019-01-30T03:30:50.190Z,40.43
2019-01-30T03:32:57.910Z,36.97
2019-01-30T03:35:04.689Z,37.47
2019-01-30T03:37:11.480Z,29.83
2019-01-30T03:39:19.529Z,25.60
2019-01-30T03:41:25.889Z,33.60
2019-01-30T03:43:33.400Z,27.03
2019-01-30T03:45:39.968Z,25.63
2019-01-30T03:47:47.112Z,29.53
2019-01-30T03:49:53.490Z,30.60
2019-01-30T03:52:00.368Z,33.20
2019-01-30T03:54:07.008Z,32.23
2019-01-30T03:56:13.408Z,25.80
2019-01-30T03:58:19.489Z,26.87
2019-01-30T04:00:27.548Z,22.97
2019-01-30T04:02:33.849Z,30.53
2019-01-30T04:04:40.480Z,25.30
2019-01-30T04:06:46.848Z,27.37
2019-01-30T04:08:53.208Z,21.80
2019-01-30T04:11:02.588Z,29.67
2019-01-30T04:13:09.208Z,26.63
2019-01-30T04:15:17.193Z,29.37
2019-01-30T04:17:23.557Z,30.30
2019-01-30T04:19:30.388Z,27.57
2019-01-30T04:21:37.149Z,29.30
2019-01-30T04:23:43.668Z,30.47
2019-01-30T04:25:49.828Z,29.87
2019-01-30T04:27:56.088Z,32.90
2019-01-30T04:30:03.670Z,29.57
2019-01-30T04:32:11.208Z,29.57
2019-01-30T04:34:17.550Z,34.80
2019-01-30T04:36:25.188Z,48.20
2019-01-30T04:38:35.189Z,38.70
2019-01-30T04:40:41.868Z,47.47
2019-01-30T04:42:48.434Z,38.03
2019-01-30T04:44:54.690Z,45.90
2019-01-30T04:47:01.948Z,49.70
2019-01-30T04:49:09.556Z,48.67
2019-01-30T04:51:16.691Z,46.43
2019-01-30T04:53:23.015Z,49.63
2019-01-30T04:55:29.331Z,42.33
2019-01-30T04:57:35.929Z,45.47
2019-01-30T04:59:43.794Z,39.10
2019-01-30T05:01:50.304Z,42.67
2019-01-30T05:03:56.508Z,39.50
2019-01-30T05:06:04.533Z,38.97
2019-01-30T05:08:10.808Z,37.30
2019-01-30T05:10:17.589Z,38.67
2019-01-30T05:12:25.711Z,35.10
2019-01-30T05:14:32.048Z,37.70
2019-01-30T05:16:39.630Z,36.70
2019-01-30T05:18:47.329Z,33.30
2019-01-30T05:20:53.851Z,31.90
2019-01-30T05:23:00.150Z,37.70
2019-01-30T05:25:09.169Z,36.70
2019-01-30T05:27:18.259Z,39.67
2019-01-30T05:29:24.568Z,36.97
2019-01-30T05:31:30.830Z,38.83
2019-01-30T05:33:37.474Z,44.50
2019-01-30T05:35:43.688Z,32.90
2019-01-30T05:37:51.430Z,32.13
2019-01-30T05:39:58.149Z,42.07
2019-01-30T05:42:04.387Z,43.40
2019-01-30T05:44:10.648Z,33.63
2019-01-30T05:46:16.812Z,36.17
2019-01-30T05:48:23.071Z,42.60
2019-01-30T05:50:29.376Z,31.53
2019-01-30T05:52:35.888Z,42.90
2019-01-30T05:54:42.691Z,35.23
2019-01-30T05:56:49.128Z,41.27
2019-01-30T05:58:55.808Z,43.53
2019-01-30T06:01:04.211Z,46.37
2019-01-30T06:03:11.376Z,46.00
2019-01-30T06:05:23.048Z,48.00
2019-01-30T06:07:31.848Z,45.20
2019-01-30T06:09:38.528Z,40.40
2019-01-30T06:11:44.713Z,39.33
2019-01-30T06:13:51.609Z,47.87
2019-01-30T06:15:58.048Z,45.20
2019-01-30T06:18:04.779Z,44.23
2019-01-30T06:20:18.372Z,50.83
2019-01-30T06:22:24.869Z,46.73
2019-01-30T06:24:31.169Z,42.97
2019-01-30T06:26:37.488Z,40.60
2019-01-30T06:28:44.688Z,39.33
2019-01-30T06:30:52.628Z,95.10
2019-01-30T06:33:00.568Z,54.33
2019-01-30T06:37:41.850Z,45.17
2019-01-30T06:39:48.308Z,36.97
2019-01-30T06:41:54.728Z,36.13
2019-01-30T06:44:01.179Z,35.17
2019-01-30T06:46:08.008Z,65.87
2019-01-30T06:48:14.768Z,46.67
2019-01-30T06:50:21.268Z,44.97
2019-01-30T06:52:27.768Z,46.77
2019-01-30T06:54:34.205Z,55.43
2019-01-30T06:56:40.728Z,52.90
2019-01-30T06:58:47.607Z,54.07
2019-01-30T07:00:53.888Z,47.93
2019-01-30T07:03:01.128Z,45.67
2019-01-30T07:05:08.237Z,47.97
2019-01-30T07:07:14.712Z,53.10
2019-01-30T07:09:21.149Z,49.47
2019-01-30T07:11:27.769Z,55.03
2019-01-30T07:13:34.408Z,60.03
2019-01-30T07:15:40.827Z,54.17
2019-01-30T07:17:47.169Z,40.83
2019-01-30T07:25:11.511Z,52.13
2019-01-30T07:27:18.530Z,45.63
2019-01-30T07:29:24.689Z,50.27
2019-01-30T07:31:31.569Z,52.43
2019-01-30T07:33:38.588Z,49.60
2019-01-30T07:35:45.609Z,50.63
2019-01-30T07:37:52.249Z,45.17
2019-01-30T07:39:58.648Z,48.70
2019-01-30T07:42:05.231Z,54.63
2019-01-30T07:44:11.369Z,41.20
2019-01-30T07:46:17.649Z,44.67
2019-01-30T07:48:27.179Z,45.97
2019-01-30T07:50:31.973Z,39.30
2019-01-30T07:52:38.449Z,49.77
2019-01-30T07:54:45.709Z,39.33
2019-01-30T07:56:51.911Z,35.50
2019-01-30T07:58:57.994Z,35.77
2019-01-30T08:01:04.568Z,47.83
2019-01-30T08:03:11.309Z,44.83
2019-01-30T08:05:18.433Z,41.90
2019-01-30T08:07:27.761Z,105.13
2019-01-30T08:09:35.148Z,48.37
2019-01-30T08:11:43.089Z,53.13
2019-01-30T08:13:49.712Z,50.03
2019-01-30T08:15:56.208Z,49.33
2019-01-30T08:18:02.644Z,56.90
2019-01-30T08:20:13.169Z,51.57
2019-01-30T08:22:19.827Z,45.70
2019-01-30T08:24:28.187Z,48.60
2019-01-30T08:26:34.896Z,51.00
2019-01-30T08:28:41.533Z,46.73
2019-01-30T08:30:49.761Z,47.53
2019-01-30T08:33:04.051Z,48.70
2019-01-30T08:35:06.229Z,40.10
2019-01-30T08:37:13.887Z,44.33
2019-01-30T08:39:21.509Z,38.93
2019-01-30T08:41:27.918Z,50.90
2019-01-30T08:43:37.017Z,48.20
2019-01-30T08:45:43.828Z,68.07
2019-01-30T08:47:52.048Z,60.57
2019-01-30T08:49:59.449Z,129.30
2019-01-30T08:52:06.409Z,44.77
2019-01-30T08:54:13.429Z,55.27
2019-01-30T08:56:19.970Z,44.77
2019-01-30T08:58:26.249Z,47.53
2019-01-30T09:00:32.511Z,43.43
2019-01-30T09:02:38.889Z,52.17
2019-01-30T09:04:46.793Z,39.73
2019-01-30T09:06:53.528Z,51.33
2019-01-30T09:09:00.828Z,42.57
2019-01-30T09:11:09.271Z,47.63
2019-01-30T09:13:15.811Z,45.57
2019-01-30T09:15:24.849Z,53.67
2019-01-30T09:17:31.508Z,50.33
2019-01-30T09:19:37.808Z,43.00
2019-01-30T09:21:45.170Z,40.57
2019-01-30T09:23:51.549Z,46.93
2019-01-30T09:25:58.036Z,31.80
2019-01-30T09:28:05.530Z,28.13
2019-01-30T09:30:25.230Z,35.73
2019-01-30T09:32:33.452Z,42.67
2019-01-30T09:34:39.901Z,41.23
2019-01-30T09:36:46.269Z,32.53
2019-01-30T09:38:52.875Z,31.93
2019-01-30T09:40:59.133Z,33.03
2019-01-30T09:43:05.652Z,35.97
2019-01-30T09:45:17.382Z,29.43
2019-01-30T09:47:23.649Z,31.17
2019-01-30T09:49:30.109Z,32.00
2019-01-30T09:51:36.716Z,34.40
2019-01-30T09:53:43.528Z,36.90
2019-01-30T09:55:49.948Z,47.57
2019-01-30T09:57:57.989Z,48.43
2019-01-30T10:00:06.349Z,42.43
2019-01-30T10:02:12.648Z,56.80
2019-01-30T10:04:19.575Z,52.87
2019-01-30T10:06:27.448Z,47.33
2019-01-30T10:08:34.110Z,34.00
2019-01-30T10:10:44.172Z,32.33
2019-01-30T10:12:50.389Z,32.33
2019-01-30T10:14:57.299Z,32.67
2019-01-30T10:17:03.812Z,30.87
2019-01-30T10:19:10.512Z,27.60
2019-01-30T10:21:17.089Z,25.57
2019-01-30T10:23:23.797Z,26.43
2019-01-30T10:25:30.248Z,29.67
2019-01-30T10:27:36.848Z,30.77
2019-01-30T10:29:43.168Z,23.60
2019-01-30T10:31:52.168Z,35.57
2019-01-30T10:33:58.689Z,27.20
2019-01-30T10:36:05.488Z,31.13
2019-01-30T10:38:11.608Z,27.80
2019-01-30T10:40:24.808Z,33.17
2019-01-30T10:42:32.850Z,27.93
2019-01-30T10:44:39.075Z,24.50
2019-01-30T10:46:47.088Z,25.53
2019-01-30T10:48:53.629Z,26.90
2019-01-30T10:51:00.009Z,21.83
2019-01-30T10:53:08.116Z,17.43
2019-01-30T10:55:21.728Z,15.57
2019-01-30T10:57:30.851Z,15.07
2019-01-30T10:59:38.451Z,17.43
2019-01-30T11:01:45.788Z,18.03
2019-01-30T11:03:57.350Z,14.80
2019-01-30T11:06:04.068Z,20.60
2019-01-30T11:08:10.569Z,19.23
2019-01-30T11:10:21.532Z,21.60
2019-01-30T11:12:27.969Z,18.33
2019-01-30T11:14:34.508Z,18.07
2019-01-30T11:16:40.791Z,13.90
2019-01-30T11:18:48.908Z,16.03
2019-01-30T11:20:55.149Z,22.70
2019-01-30T11:23:01.348Z,14.17
2019-01-30T11:25:12.668Z,22.27
2019-01-30T11:27:19.548Z,19.27
2019-01-30T11:29:25.867Z,20.37
2019-01-30T11:31:32.769Z,15.50
2019-01-30T11:33:38.808Z,26.90
2019-01-30T11:35:45.887Z,30.57
2019-01-30T11:37:52.249Z,32.10
2019-01-30T11:39:58.552Z,26.00
2019-01-30T11:42:05.810Z,24.87
2019-01-30T11:44:13.048Z,21.13
2019-01-30T11:46:19.469Z,22.13
2019-01-30T11:48:25.916Z,20.70
2019-01-30T11:50:33.116Z,20.97
2019-01-30T11:52:39.329Z,34.83
2019-01-30T11:54:46.868Z,27.73
2019-01-30T11:56:53.388Z,24.07
2019-01-30T11:59:06.024Z,27.57
2019-01-30T12:01:13.888Z,23.33
2019-01-30T12:03:21.831Z,28.40
2019-01-30T12:05:29.149Z,24.53
2019-01-30T12:07:35.349Z,27.87
2019-01-30T12:09:43.009Z,23.50
2019-01-30T12:11:49.588Z,20.53
2019-01-30T12:13:55.855Z,24.70
2019-01-30T12:16:03.514Z,28.97
2019-01-30T12:18:10.349Z,22.90
2019-01-30T12:20:17.256Z,24.00
2019-01-30T12:22:26.169Z,28.83
2019-01-30T12:24:32.888Z,36.83
2019-01-30T12:26:39.680Z,24.17
2019-01-30T12:28:45.948Z,22.27
2019-01-30T12:30:52.349Z,26.23
2019-01-30T12:32:58.687Z,28.03
2019-01-30T12:35:06.652Z,25.30
2019-01-30T12:37:14.064Z,27.53
2019-01-30T12:39:20.149Z,24.93
2019-01-30T12:41:26.347Z,24.37
2019-01-30T12:43:32.596Z,31.77
2019-01-30T12:45:40.535Z,29.00
2019-01-30T12:47:47.212Z,31.67
2019-01-30T12:49:53.608Z,24.53
2019-01-30T12:52:00.076Z,29.37
2019-01-30T12:54:06.507Z,32.57
2019-01-30T12:56:13.149Z,34.93
2019-01-30T12:58:21.339Z,38.23
2019-01-30T13:00:40.450Z,31.50
2019-01-30T13:02:47.627Z,33.67
2019-01-30T13:04:55.216Z,36.80
2019-01-30T13:07:01.849Z,27.77
2019-01-30T13:09:09.388Z,35.83
2019-01-30T13:11:15.728Z,32.23
2019-01-30T13:13:22.067Z,33.53
2019-01-30T13:15:29.873Z,39.60
2019-01-30T13:17:36.650Z,30.83
2019-01-30T13:19:42.868Z,36.87
2019-01-30T13:21:50.026Z,33.20
2019-01-30T13:23:56.388Z,35.87
2019-01-30T13:26:04.491Z,34.13
2019-01-30T13:28:10.888Z,30.47
2019-01-30T13:30:30.348Z,31.40
2019-01-30T13:32:37.112Z,29.50
2019-01-30T13:34:48.985Z,27.50
2019-01-30T13:36:51.752Z,42.63
2019-01-30T13:38:58.583Z,32.53
2019-01-30T13:41:06.468Z,26.87
2019-01-30T13:43:12.670Z,33.53
2019-01-30T13:45:20.248Z,30.70
2019-01-30T13:47:28.088Z,33.53
2019-01-30T13:49:34.511Z,32.77
2019-01-30T13:51:40.729Z,31.27
2019-01-30T13:53:48.841Z,37.03
2019-01-30T13:55:56.540Z,31.13
2019-01-30T13:58:05.375Z,37.50
2019-01-30T14:00:33.329Z,37.33
2019-01-30T14:02:40.145Z,39.03
2019-01-30T14:04:47.391Z,40.57
2019-01-30T14:06:56.568Z,39.53
2019-01-30T14:09:03.167Z,43.60
2019-01-30T14:11:12.298Z,38.33
2019-01-30T14:13:20.348Z,40.77
2019-01-30T14:15:29.968Z,39.73
2019-01-30T14:17:36.444Z,39.00
2019-01-30T14:19:42.984Z,42.70
2019-01-30T14:21:49.215Z,45.33
2019-01-30T14:23:57.171Z,40.07
2019-01-30T14:26:03.630Z,38.27
2019-01-30T14:28:10.228Z,39.27
2019-01-30T14:30:33.727Z,44.47
2019-01-30T14:32:40.249Z,40.17
2019-01-30T14:34:47.043Z,39.63
2019-01-30T14:36:53.728Z,49.27
2019-01-30T14:39:00.242Z,37.03
2019-01-30T14:41:08.567Z,42.83
2019-01-30T14:43:17.635Z,48.30
2019-01-30T14:45:24.655Z,47.80
2019-01-30T14:47:31.323Z,46.17
2019-01-30T14:49:37.773Z,46.77
2019-01-30T14:51:46.777Z,51.67
2019-01-30T14:53:59.615Z,45.00
2019-01-30T14:56:09.335Z,50.50
2019-01-30T14:58:19.383Z,47.80
2019-01-30T15:00:31.147Z,48.43
2019-01-30T15:02:39.003Z,46.77
2019-01-30T15:04:45.368Z,44.87
2019-01-30T15:06:53.651Z,50.77
2019-01-30T15:09:01.250Z,50.10
2019-01-30T15:11:07.859Z,58.10
2019-01-30T15:13:14.251Z,48.77
2019-01-30T15:15:26.131Z,49.80
2019-01-30T15:17:32.593Z,46.97
2019-01-30T15:19:39.273Z,51.20
2019-01-30T15:21:47.521Z,50.67
2019-01-30T15:23:54.509Z,46.77
2019-01-30T15:26:00.768Z,49.23
2019-01-30T15:28:08.668Z,49.93
2019-01-30T15:30:29.189Z,60.33
2019-01-30T15:32:36.111Z,55.73
2019-01-30T15:34:42.249Z,59.97
2019-01-30T15:36:48.388Z,64.77
2019-01-30T15:38:55.248Z,64.00
2019-01-30T15:41:02.017Z,64.57
2019-01-30T15:43:08.609Z,74.13
2019-01-30T15:45:18.884Z,73.77
2019-01-30T15:47:25.577Z,74.47
2019-01-30T15:49:32.390Z,71.77
2019-01-30T15:51:39.888Z,83.73
2019-01-30T15:53:46.415Z,76.97
2019-01-30T15:55:52.871Z,76.60
2019-01-30T15:58:06.851Z,73.37
2019-01-30T16:00:35.928Z,78.73
2019-01-30T16:02:42.758Z,78.67
2019-01-30T16:04:51.332Z,72.37
2019-01-30T16:06:58.001Z,64.00
2019-01-30T16:09:06.328Z,63.13
2019-01-30T16:11:12.976Z,69.30
2019-01-30T16:13:19.848Z,67.87
2019-01-30T16:15:42.469Z,69.67
2019-01-30T16:17:48.949Z,69.67
2019-01-30T16:19:55.851Z,72.23
2019-01-30T16:22:03.461Z,69.27
2019-01-30T16:24:09.908Z,63.17
2019-01-30T16:26:17.948Z,59.43
2019-01-30T16:28:24.570Z,57.57
2019-01-30T16:30:31.376Z,57.97
2019-01-30T16:32:39.688Z,66.20
2019-01-30T16:34:47.369Z,63.53
2019-01-30T16:36:54.068Z,67.17
2019-01-30T16:39:01.096Z,62.87
2019-01-30T16:41:08.908Z,57.50
2019-01-30T16:43:16.988Z,67.83
2019-01-30T16:45:30.134Z,63.43
2019-01-30T16:47:36.729Z,64.13
2019-01-30T16:49:43.469Z,64.03
2019-01-30T16:51:50.129Z,61.70
2019-01-30T16:53:56.728Z,61.97
2019-01-30T16:56:02.988Z,57.67
2019-01-30T16:58:09.757Z,72.43
2019-01-30T17:00:20.409Z,55.63
2019-01-30T17:02:27.290Z,67.40
2019-01-30T17:04:33.956Z,57.13
2019-01-30T17:06:43.699Z,64.53
2019-01-30T17:08:50.869Z,71.60
2019-01-30T17:10:57.357Z,58.80
2019-01-30T17:13:04.329Z,68.97
2019-01-30T17:15:15.468Z,63.47
2019-01-30T17:17:22.308Z,68.97
2019-01-30T17:19:29.049Z,59.43
2019-01-30T17:21:36.288Z,68.40
2019-01-30T17:23:43.428Z,69.23
2019-01-30T17:25:49.968Z,70.43
2019-01-30T17:27:56.650Z,65.27
2019-01-30T17:30:03.377Z,65.03
2019-01-30T17:32:10.073Z,68.33
2019-01-30T17:34:17.167Z,72.80
2019-01-30T17:36:23.849Z,63.10
2019-01-30T17:38:30.579Z,67.10
2019-01-30T17:40:37.356Z,71.37
2019-01-30T17:42:44.108Z,68.97
2019-01-30T17:44:51.248Z,70.73
2019-01-30T17:46:57.935Z,71.37
2019-01-30T17:49:04.768Z,74.27
2019-01-30T17:51:11.428Z,71.30
2019-01-30T17:53:18.171Z,76.80
2019-01-30T17:55:26.217Z,75.73
2019-01-30T17:57:33.268Z,68.13
2019-01-30T17:59:40.068Z,68.23
2019-01-30T18:01:46.816Z,67.03
2019-01-30T18:03:53.508Z,82.47
2019-01-30T18:06:00.169Z,75.47
2019-01-30T18:08:07.068Z,90.67
2019-01-30T18:10:17.747Z,84.67
2019-01-30T18:12:24.209Z,82.90
2019-01-30T18:14:32.296Z,77.70
2019-01-30T18:16:39.068Z,81.07
2019-01-30T18:18:45.948Z,111.20
2019-01-30T18:20:52.829Z,160.23
2019-01-30T18:23:01.588Z,125.97
2019-01-30T18:25:13.308Z,91.43
2019-01-30T18:27:19.948Z,110.10
2019-01-30T18:29:26.928Z,84.47
2019-01-30T18:31:34.869Z,86.90
2019-01-30T18:33:42.089Z,80.47
2019-01-30T18:35:49.348Z,82.73
2019-01-30T18:37:56.468Z,71.90
2019-01-30T18:40:03.759Z,78.90
2019-01-30T18:42:10.436Z,81.10
2019-01-30T18:44:19.390Z,82.57
2019-01-30T18:46:29.089Z,76.47
2019-01-30T18:48:36.209Z,77.87
2019-01-30T18:50:45.672Z,75.20
2019-01-30T18:52:51.828Z,83.10
2019-01-30T18:54:59.169Z,84.77
2019-01-30T18:57:06.048Z,78.63
2019-01-30T18:59:12.929Z,72.50
2019-01-30T19:01:19.857Z,75.23
2019-01-30T19:03:29.472Z,72.67
2019-01-30T19:05:36.991Z,77.37
2019-01-30T19:07:44.405Z,83.07
2019-01-30T19:09:50.880Z,80.40
2019-01-30T19:11:57.988Z,78.97
2019-01-30T19:14:04.668Z,92.60
2019-01-30T19:16:11.154Z,87.27
2019-01-30T19:18:20.148Z,127.67
2019-01-30T19:20:43.048Z,101.77
2019-01-30T19:22:50.374Z,229.13
2019-01-30T19:24:57.135Z,155.73
2019-01-30T19:27:03.893Z,107.10
2019-01-30T19:29:11.033Z,119.30
2019-01-30T19:31:17.892Z,103.43
2019-01-30T19:33:25.840Z,79.77
2019-01-30T19:35:32.620Z,99.43
2019-01-30T19:37:39.659Z,95.93
2019-01-30T19:39:46.813Z,94.50
2019-01-30T19:41:53.545Z,86.33
2019-01-30T19:44:00.654Z,82.53
2019-01-30T19:46:07.832Z,83.30
2019-01-30T19:48:15.373Z,77.97
2019-01-30T19:50:28.052Z,79.90
2019-01-30T19:52:35.032Z,78.07
2019-01-30T19:54:41.773Z,75.43
2019-01-30T19:56:49.072Z,74.53
2019-01-30T19:58:56.212Z,70.53
2019-01-30T20:01:03.633Z,77.03
2019-01-30T20:03:15.613Z,72.37
2019-01-30T20:05:22.388Z,77.73
2019-01-30T20:07:29.248Z,78.03
2019-01-30T20:09:35.868Z,83.47
2019-01-30T20:11:43.528Z,90.87
2019-01-30T20:13:50.171Z,73.13
2019-01-30T20:15:57.107Z,88.30
2019-01-30T20:18:04.011Z,80.60
2019-01-30T20:20:21.333Z,81.40
2019-01-30T20:22:29.368Z,82.90
2019-01-30T20:24:37.280Z,83.13
2019-01-30T20:26:44.477Z,80.03
2019-01-30T20:28:51.392Z,79.93
2019-01-30T20:31:01.113Z,85.40
2019-01-30T20:33:07.037Z,90.83
2019-01-30T20:35:13.870Z,87.80
2019-01-30T20:37:26.365Z,92.87
2019-01-30T20:39:29.068Z,87.83
2019-01-30T20:41:35.798Z,83.13
2019-01-30T20:43:44.267Z,87.97
2019-01-30T20:45:51.109Z,89.73
2019-01-30T20:47:58.188Z,91.13
2019-01-30T20:50:08.010Z,86.60
2019-01-30T20:52:14.772Z,91.20
2019-01-30T20:54:22.473Z,86.20
2019-01-30T20:56:28.991Z,96.10
2019-01-30T20:58:35.828Z,91.43
2019-01-30T21:00:42.731Z,97.47
2019-01-30T21:02:49.610Z,89.37
2019-01-30T21:04:57.209Z,82.70
2019-01-30T21:07:03.989Z,89.50
2019-01-30T21:09:10.729Z,81.67
2019-01-30T21:11:18.728Z,76.20
2019-01-30T21:13:25.388Z,88.37
2019-01-30T21:15:32.828Z,83.27
2019-01-30T21:17:39.629Z,84.27
2019-01-30T21:19:46.517Z,78.27
2019-01-30T21:21:53.350Z,82.87
2019-01-30T21:24:00.023Z,82.80
2019-01-30T21:26:06.969Z,84.47
2019-01-30T21:28:13.588Z,81.20
2019-01-30T21:30:28.057Z,75.10
2019-01-30T21:32:34.988Z,85.10
2019-01-30T21:34:41.489Z,79.40
2019-01-30T21:36:48.291Z,78.27
2019-01-30T21:38:54.957Z,90.80
2019-01-30T21:41:01.611Z,88.10
2019-01-30T21:43:09.534Z,79.53
2019-01-30T21:45:25.525Z,82.33
2019-01-30T21:47:32.670Z,80.43
2019-01-30T21:49:39.288Z,86.27
2019-01-30T21:51:45.749Z,86.30
2019-01-30T21:53:52.389Z,84.33
2019-01-30T21:55:58.627Z,76.53
2019-01-30T21:58:05.435Z,90.90
2019-01-30T22:00:25.089Z,84.87
2019-01-30T22:02:31.469Z,72.83
2019-01-30T22:04:39.934Z,94.37
2019-01-30T22:06:47.228Z,87.37
2019-01-30T22:08:53.755Z,88.03
2019-01-30T22:11:00.337Z,88.40
2019-01-30T22:13:06.667Z,80.97
2019-01-30T22:15:16.330Z,78.73
2019-01-30T22:17:23.508Z,76.10
2019-01-30T22:19:30.009Z,82.60
2019-01-30T22:21:36.308Z,74.73
2019-01-30T22:23:43.214Z,77.50
2019-01-30T22:25:50.968Z,77.87
2019-01-30T22:27:58.237Z,77.60
2019-01-30T22:30:06.877Z,94.67
2019-01-30T22:32:13.308Z,83.87
2019-01-30T22:34:19.809Z,77.87
2019-01-30T22:36:26.169Z,85.10
2019-01-30T22:38:32.469Z,77.57
2019-01-30T22:40:39.568Z,76.67
2019-01-30T22:42:46.089Z,82.50
2019-01-30T22:44:54.428Z,67.27
2019-01-30T22:47:01.091Z,80.23
2019-01-30T22:49:07.448Z,78.00
2019-01-30T22:51:14.308Z,81.00
2019-01-30T22:53:22.588Z,78.30
2019-01-30T22:55:29.051Z,73.20
2019-01-30T22:57:36.148Z,79.17
2019-01-30T22:59:42.408Z,73.87
2019-01-30T23:01:50.048Z,77.83
2019-01-30T23:04:15.692Z,82.27
2019-01-30T23:06:36.008Z,77.03
2019-01-30T23:08:53.988Z,86.93
2019-01-30T23:11:19.909Z,78.83
2019-01-30T23:13:33.768Z,76.00
2019-01-30T23:16:00.708Z,77.30
2019-01-30T23:18:38.421Z,80.13
2019-01-30T23:20:55.488Z,80.93
2019-01-30T23:23:35.328Z,76.80
2019-01-30T23:26:09.909Z,76.97
2019-01-30T23:28:27.668Z,82.20
2019-01-30T23:30:47.468Z,77.03
2019-01-30T23:33:17.147Z,81.60
2019-01-30T23:35:40.328Z,79.30
2019-01-30T23:37:52.803Z,62.07
2019-01-30T23:40:24.767Z,74.77
2019-01-30T23:43:02.564Z,73.30
2019-01-30T23:45:35.290Z,81.70
2019-01-30T23:47:58.063Z,78.77
2019-01-30T23:50:32.888Z,76.77
2019-01-30T23:53:01.748Z,78.67
2019-01-30T23:55:12.629Z,65.10
2019-01-30T23:57:45.892Z,71.73
